sensor_id;sensor_type;location;lat;lon;timestamp;P1;durP1;ratioP1;P2;durP2;ratioP2
35745;SDS011;21870;42.812;74.628;2023-02-18T00:00:13;6.38;;;5.85;;
35745;SDS011;21870;42.812;74.628;2023-02-18T00:02:42;7.35;;;6.68;;
35745;SDS011;21870;42.812;74.628;2023-02-18T00:05:08;6.00;;;5.60;;
35745;SDS011;21870;42.812;74.628;2023-02-18T00:07:35;6.07;;;5.68;;
35745;SDS011;21870;42.812;74.628;2023-02-18T00:10:02;6.95;;;6.45;;
35745;SDS011;21870;42.812;74.628;2023-02-18T00:12:30;7.00;;;6.50;;
35745;SDS011;21870;42.812;74.628;2023-02-18T00:14:56;7.38;;;6.88;;
35745;SDS011;21870;42.812;74.628;2023-02-18T00:17:27;7.47;;;6.97;;
35745;SDS011;21870;42.812;74.628;2023-02-18T00:19:53;6.78;;;6.28;;
35745;SDS011;21870;42.812;74.628;2023-02-18T00:22:21;7.65;;;7.10;;
35745;SDS011;21870;42.812;74.628;2023-02-18T00:24:47;7.95;;;7.38;;
35745;SDS011;21870;42.812;74.628;2023-02-18T00:27:14;8.15;;;7.55;;
35745;SDS011;21870;42.812;74.628;2023-02-18T00:29:40;8.23;;;7.47;;
35745;SDS011;21870;42.812;74.628;2023-02-18T00:32:06;7.25;;;6.75;;
35745;SDS011;21870;42.812;74.628;2023-02-18T00:34:32;7.60;;;7.00;;
35745;SDS011;21870;42.812;74.628;2023-02-18T00:36:58;7.70;;;7.10;;
35745;SDS011;21870;42.812;74.628;2023-02-18T00:39:24;7.43;;;6.82;;
35745;SDS011;21870;42.812;74.628;2023-02-18T00:41:50;7.97;;;7.38;;
35745;SDS011;21870;42.812;74.628;2023-02-18T00:44:16;7.95;;;7.28;;
35745;SDS011;21870;42.812;74.628;2023-02-18T00:46:43;8.20;;;7.50;;
35745;SDS011;21870;42.812;74.628;2023-02-18T00:49:12;10.95;;;10.05;;
35745;SDS011;21870;42.812;74.628;2023-02-18T00:51:38;15.23;;;13.77;;
35745;SDS011;21870;42.812;74.628;2023-02-18T00:54:04;13.25;;;11.93;;
35745;SDS011;21870;42.812;74.628;2023-02-18T00:56:31;11.30;;;10.40;;
35745;SDS011;21870;42.812;74.628;2023-02-18T00:58:57;12.07;;;11.05;;
35745;SDS011;21870;42.812;74.628;2023-02-18T01:01:23;12.07;;;11.07;;
35745;SDS011;21870;42.812;74.628;2023-02-18T01:03:50;10.32;;;9.43;;
35745;SDS011;21870;42.812;74.628;2023-02-18T01:06:16;8.27;;;7.68;;
35745;SDS011;21870;42.812;74.628;2023-02-18T01:08:42;9.00;;;8.30;;
35745;SDS011;21870;42.812;74.628;2023-02-18T01:11:09;8.75;;;7.90;;
35745;SDS011;21870;42.812;74.628;2023-02-18T01:13:36;11.98;;;10.88;;
35745;SDS011;21870;42.812;74.628;2023-02-18T01:16:03;11.50;;;10.40;;
35745;SDS011;21870;42.812;74.628;2023-02-18T01:18:29;10.95;;;9.95;;
35745;SDS011;21870;42.812;74.628;2023-02-18T01:20:55;10.80;;;9.77;;
35745;SDS011;21870;42.812;74.628;2023-02-18T01:23:22;12.38;;;11.13;;
35745;SDS011;21870;42.812;74.628;2023-02-18T01:25:48;12.23;;;11.13;;
35745;SDS011;21870;42.812;74.628;2023-02-18T01:28:15;13.98;;;12.57;;
35745;SDS011;21870;42.812;74.628;2023-02-18T01:30:42;14.18;;;12.77;;
35745;SDS011;21870;42.812;74.628;2023-02-18T01:33:09;13.68;;;12.38;;
35745;SDS011;21870;42.812;74.628;2023-02-18T01:35:36;15.30;;;13.70;;
35745;SDS011;21870;42.812;74.628;2023-02-18T01:38:06;14.68;;;13.27;;
35745;SDS011;21870;42.812;74.628;2023-02-18T01:40:33;14.50;;;13.00;;
35745;SDS011;21870;42.812;74.628;2023-02-18T01:43:00;18.85;;;16.77;;
35745;SDS011;21870;42.812;74.628;2023-02-18T01:45:37;20.10;;;17.55;;
35745;SDS011;21870;42.812;74.628;2023-02-18T01:50:53;19.17;;;16.40;;
35745;SDS011;21870;42.812;74.628;2023-02-18T01:53:30;23.35;;;20.65;;
35745;SDS011;21870;42.812;74.628;2023-02-18T01:56:10;19.20;;;17.25;;
35745;SDS011;21870;42.812;74.628;2023-02-18T01:58:41;17.20;;;15.40;;
35745;SDS011;21870;42.812;74.628;2023-02-18T02:01:08;17.38;;;14.98;;
35745;SDS011;21870;42.812;74.628;2023-02-18T02:03:35;16.38;;;14.60;;
35745;SDS011;21870;42.812;74.628;2023-02-18T02:06:01;17.65;;;15.70;;
35745;SDS011;21870;42.812;74.628;2023-02-18T02:08:30;20.48;;;16.00;;
35745;SDS011;21870;42.812;74.628;2023-02-18T02:11:06;17.02;;;15.23;;
35745;SDS011;21870;42.812;74.628;2023-02-18T02:24:49;17.15;;;15.32;;
35745;SDS011;21870;42.812;74.628;2023-02-18T02:35:22;16.23;;;14.63;;
35745;SDS011;21870;42.812;74.628;2023-02-18T02:46:14;13.13;;;11.63;;
35745;SDS011;21870;42.812;74.628;2023-02-18T02:48:52;12.30;;;11.10;;
35745;SDS011;21870;42.812;74.628;2023-02-18T02:51:40;14.40;;;12.02;;
35745;SDS011;21870;42.812;74.628;2023-02-18T02:54:22;13.73;;;12.32;;
35745;SDS011;21870;42.812;74.628;2023-02-18T02:57:03;13.38;;;11.88;;
35745;SDS011;21870;42.812;74.628;2023-02-18T02:59:31;11.48;;;10.27;;
35745;SDS011;21870;42.812;74.628;2023-02-18T03:13:50;20.45;;;18.40;;
35745;SDS011;21870;42.812;74.628;2023-02-18T03:19:01;43.97;;;29.75;;
35745;SDS011;21870;42.812;74.628;2023-02-18T03:24:06;84.40;;;57.55;;
35745;SDS011;21870;42.812;74.628;2023-02-18T03:26:38;58.58;;;48.80;;
35745;SDS011;21870;42.812;74.628;2023-02-18T03:29:18;43.72;;;38.42;;
35745;SDS011;21870;42.812;74.628;2023-02-18T03:31:46;44.40;;;35.10;;
35745;SDS011;21870;42.812;74.628;2023-02-18T03:34:19;37.60;;;28.80;;
35745;SDS011;21870;42.812;74.628;2023-02-18T03:36:50;37.55;;;30.30;;
35745;SDS011;21870;42.812;74.628;2023-02-18T03:39:18;34.92;;;27.92;;
35745;SDS011;21870;42.812;74.628;2023-02-18T03:41:47;32.15;;;25.20;;
35745;SDS011;21870;42.812;74.628;2023-02-18T03:44:14;43.85;;;34.97;;
35745;SDS011;21870;42.812;74.628;2023-02-18T03:46:41;41.95;;;36.30;;
35745;SDS011;21870;42.812;74.628;2023-02-18T03:49:08;35.03;;;30.35;;
35745;SDS011;21870;42.812;74.628;2023-02-18T03:51:38;34.33;;;28.17;;
35745;SDS011;21870;42.812;74.628;2023-02-18T03:54:05;32.30;;;26.58;;
35745;SDS011;21870;42.812;74.628;2023-02-18T03:56:32;88.50;;;56.10;;
35745;SDS011;21870;42.812;74.628;2023-02-18T03:58:58;63.03;;;43.83;;
35745;SDS011;21870;42.812;74.628;2023-02-18T04:01:25;43.90;;;34.17;;
35745;SDS011;21870;42.812;74.628;2023-02-18T04:03:51;57.70;;;39.33;;
35745;SDS011;21870;42.812;74.628;2023-02-18T04:06:20;35.55;;;26.33;;
35745;SDS011;21870;42.812;74.628;2023-02-18T04:08:49;33.13;;;27.42;;
35745;SDS011;21870;42.812;74.628;2023-02-18T04:11:15;35.70;;;26.88;;
35745;SDS011;21870;42.812;74.628;2023-02-18T04:13:42;28.30;;;21.95;;
35745;SDS011;21870;42.812;74.628;2023-02-18T04:16:08;35.53;;;24.42;;
35745;SDS011;21870;42.812;74.628;2023-02-18T04:18:34;35.35;;;26.33;;
35745;SDS011;21870;42.812;74.628;2023-02-18T04:21:00;29.15;;;22.63;;
35745;SDS011;21870;42.812;74.628;2023-02-18T04:23:26;30.80;;;22.85;;
35745;SDS011;21870;42.812;74.628;2023-02-18T04:25:52;39.30;;;27.70;;
35745;SDS011;21870;42.812;74.628;2023-02-18T04:28:18;49.13;;;33.63;;
35745;SDS011;21870;42.812;74.628;2023-02-18T04:30:45;31.48;;;22.98;;
35745;SDS011;21870;42.812;74.628;2023-02-18T04:33:11;23.95;;;19.92;;
35745;SDS011;21870;42.812;74.628;2023-02-18T04:35:38;29.88;;;22.23;;
35745;SDS011;21870;42.812;74.628;2023-02-18T04:38:10;25.88;;;19.75;;
35745;SDS011;21870;42.812;74.628;2023-02-18T04:40:36;20.83;;;16.67;;
35745;SDS011;21870;42.812;74.628;2023-02-18T04:43:02;24.08;;;18.38;;
35745;SDS011;21870;42.812;74.628;2023-02-18T04:45:28;21.23;;;16.73;;
35745;SDS011;21870;42.812;74.628;2023-02-18T04:47:54;27.00;;;20.05;;
35745;SDS011;21870;42.812;74.628;2023-02-18T04:50:20;20.80;;;16.15;;
35745;SDS011;21870;42.812;74.628;2023-02-18T04:52:47;15.07;;;12.90;;
35745;SDS011;21870;42.812;74.628;2023-02-18T04:55:13;18.95;;;14.55;;
35745;SDS011;21870;42.812;74.628;2023-02-18T04:57:39;20.27;;;16.10;;
35745;SDS011;21870;42.812;74.628;2023-02-18T05:00:06;17.58;;;15.38;;
35745;SDS011;21870;42.812;74.628;2023-02-18T05:02:35;19.48;;;14.98;;
35745;SDS011;21870;42.812;74.628;2023-02-18T05:05:01;16.95;;;15.15;;
35745;SDS011;21870;42.812;74.628;2023-02-18T05:07:27;19.45;;;16.25;;
35745;SDS011;21870;42.812;74.628;2023-02-18T05:09:53;18.05;;;15.02;;
35745;SDS011;21870;42.812;74.628;2023-02-18T05:12:19;19.92;;;16.77;;
35745;SDS011;21870;42.812;74.628;2023-02-18T05:14:45;17.90;;;15.70;;
35745;SDS011;21870;42.812;74.628;2023-02-18T05:17:12;19.55;;;16.75;;
35745;SDS011;21870;42.812;74.628;2023-02-18T05:19:38;23.27;;;20.08;;
35745;SDS011;21870;42.812;74.628;2023-02-18T05:22:04;33.08;;;23.38;;
35745;SDS011;21870;42.812;74.628;2023-02-18T05:24:30;26.35;;;21.77;;
35745;SDS011;21870;42.812;74.628;2023-02-18T05:26:56;30.63;;;24.77;;
35745;SDS011;21870;42.812;74.628;2023-02-18T05:29:22;36.20;;;25.58;;
35745;SDS011;21870;42.812;74.628;2023-02-18T05:31:48;31.35;;;23.88;;
35745;SDS011;21870;42.812;74.628;2023-02-18T05:34:14;27.27;;;22.08;;
35745;SDS011;21870;42.812;74.628;2023-02-18T05:36:40;26.42;;;22.17;;
35745;SDS011;21870;42.812;74.628;2023-02-18T05:39:06;27.58;;;22.38;;
35745;SDS011;21870;42.812;74.628;2023-02-18T05:41:32;30.05;;;24.70;;
35745;SDS011;21870;42.812;74.628;2023-02-18T05:43:58;29.75;;;25.90;;
35745;SDS011;21870;42.812;74.628;2023-02-18T05:46:43;28.50;;;23.83;;
35745;SDS011;21870;42.812;74.628;2023-02-18T05:49:10;27.48;;;24.50;;
35745;SDS011;21870;42.812;74.628;2023-02-18T05:51:36;28.90;;;24.92;;
35745;SDS011;21870;42.812;74.628;2023-02-18T05:54:03;29.27;;;25.40;;
35745;SDS011;21870;42.812;74.628;2023-02-18T05:56:29;26.60;;;23.70;;
35745;SDS011;21870;42.812;74.628;2023-02-18T05:58:55;26.65;;;23.88;;
35745;SDS011;21870;42.812;74.628;2023-02-18T06:01:21;27.23;;;24.38;;
35745;SDS011;21870;42.812;74.628;2023-02-18T06:03:47;29.75;;;26.70;;
35745;SDS011;21870;42.812;74.628;2023-02-18T06:06:13;29.70;;;26.30;;
35745;SDS011;21870;42.812;74.628;2023-02-18T06:08:39;30.13;;;26.90;;
35745;SDS011;21870;42.812;74.628;2023-02-18T06:11:05;27.48;;;24.67;;
35745;SDS011;21870;42.812;74.628;2023-02-18T06:13:31;34.53;;;28.80;;
35745;SDS011;21870;42.812;74.628;2023-02-18T06:15:57;28.35;;;25.45;;
35745;SDS011;21870;42.812;74.628;2023-02-18T06:18:24;30.52;;;25.05;;
35745;SDS011;21870;42.812;74.628;2023-02-18T06:20:50;28.23;;;24.35;;
35745;SDS011;21870;42.812;74.628;2023-02-18T06:23:16;26.98;;;23.25;;
35745;SDS011;21870;42.812;74.628;2023-02-18T06:25:42;29.38;;;24.60;;
35745;SDS011;21870;42.812;74.628;2023-02-18T06:28:09;24.92;;;22.25;;
35745;SDS011;21870;42.812;74.628;2023-02-18T06:30:35;27.63;;;24.13;;
35745;SDS011;21870;42.812;74.628;2023-02-18T06:33:01;27.05;;;24.25;;
35745;SDS011;21870;42.812;74.628;2023-02-18T06:35:28;31.20;;;25.27;;
35745;SDS011;21870;42.812;74.628;2023-02-18T06:37:55;34.70;;;29.30;;
35745;SDS011;21870;42.812;74.628;2023-02-18T06:40:21;24.90;;;20.58;;
35745;SDS011;21870;42.812;74.628;2023-02-18T06:42:47;26.27;;;22.85;;
35745;SDS011;21870;42.812;74.628;2023-02-18T06:45:13;22.23;;;19.75;;
35745;SDS011;21870;42.812;74.628;2023-02-18T06:47:39;28.80;;;25.23;;
35745;SDS011;21870;42.812;74.628;2023-02-18T06:50:05;26.45;;;22.73;;
35745;SDS011;21870;42.812;74.628;2023-02-18T06:52:32;22.35;;;19.95;;
35745;SDS011;21870;42.812;74.628;2023-02-18T06:54:58;23.48;;;20.95;;
35745;SDS011;21870;42.812;74.628;2023-02-18T06:57:25;21.40;;;19.10;;
35745;SDS011;21870;42.812;74.628;2023-02-18T06:59:51;21.20;;;18.88;;
35745;SDS011;21870;42.812;74.628;2023-02-18T07:02:17;16.27;;;14.68;;
35745;SDS011;21870;42.812;74.628;2023-02-18T07:04:43;16.35;;;14.68;;
35745;SDS011;21870;42.812;74.628;2023-02-18T07:07:10;18.60;;;15.75;;
35745;SDS011;21870;42.812;74.628;2023-02-18T07:09:36;18.90;;;17.00;;
35745;SDS011;21870;42.812;74.628;2023-02-18T07:12:03;21.15;;;17.73;;
35745;SDS011;21870;42.812;74.628;2023-02-18T07:14:29;21.27;;;19.08;;
35745;SDS011;21870;42.812;74.628;2023-02-18T07:16:55;20.85;;;18.27;;
35745;SDS011;21870;42.812;74.628;2023-02-18T07:19:22;26.15;;;22.95;;
35745;SDS011;21870;42.812;74.628;2023-02-18T07:21:48;29.70;;;26.50;;
35745;SDS011;21870;42.812;74.628;2023-02-18T07:24:14;30.67;;;27.38;;
35745;SDS011;21870;42.812;74.628;2023-02-18T07:26:40;26.08;;;23.40;;
35745;SDS011;21870;42.812;74.628;2023-02-18T07:29:06;25.58;;;23.00;;
35745;SDS011;21870;42.812;74.628;2023-02-18T07:31:32;23.85;;;21.25;;
35745;SDS011;21870;42.812;74.628;2023-02-18T07:33:58;25.23;;;22.23;;
35745;SDS011;21870;42.812;74.628;2023-02-18T07:36:25;22.60;;;18.52;;
35745;SDS011;21870;42.812;74.628;2023-02-18T07:38:51;24.10;;;21.60;;
35745;SDS011;21870;42.812;74.628;2023-02-18T07:41:18;24.08;;;21.13;;
35745;SDS011;21870;42.812;74.628;2023-02-18T07:43:46;19.95;;;17.90;;
35745;SDS011;21870;42.812;74.628;2023-02-18T07:46:12;20.85;;;17.67;;
35745;SDS011;21870;42.812;74.628;2023-02-18T07:48:38;26.35;;;20.17;;
35745;SDS011;21870;42.812;74.628;2023-02-18T07:51:05;25.90;;;21.45;;
35745;SDS011;21870;42.812;74.628;2023-02-18T07:53:33;23.27;;;20.88;;
35745;SDS011;21870;42.812;74.628;2023-02-18T07:56:00;41.10;;;26.92;;
35745;SDS011;21870;42.812;74.628;2023-02-18T07:58:27;30.65;;;27.13;;
35745;SDS011;21870;42.812;74.628;2023-02-18T08:00:55;32.05;;;23.50;;
35745;SDS011;21870;42.812;74.628;2023-02-18T08:03:23;27.88;;;20.38;;
35745;SDS011;21870;42.812;74.628;2023-02-18T08:05:51;24.42;;;17.50;;
35745;SDS011;21870;42.812;74.628;2023-02-18T08:08:22;19.95;;;16.88;;
35745;SDS011;21870;42.812;74.628;2023-02-18T08:10:53;22.15;;;18.33;;
35745;SDS011;21870;42.812;74.628;2023-02-18T08:13:20;31.55;;;21.33;;
35745;SDS011;21870;42.812;74.628;2023-02-18T08:15:47;27.55;;;21.65;;
35745;SDS011;21870;42.812;74.628;2023-02-18T08:18:17;30.85;;;24.75;;
35745;SDS011;21870;42.812;74.628;2023-02-18T08:20:45;32.70;;;26.17;;
35745;SDS011;21870;42.812;74.628;2023-02-18T08:23:12;31.25;;;26.35;;
35745;SDS011;21870;42.812;74.628;2023-02-18T08:25:39;29.55;;;24.45;;
35745;SDS011;21870;42.812;74.628;2023-02-18T08:28:09;30.13;;;26.33;;
35745;SDS011;21870;42.812;74.628;2023-02-18T08:30:35;38.78;;;31.88;;
35745;SDS011;21870;42.812;74.628;2023-02-18T08:33:01;43.33;;;35.33;;
35745;SDS011;21870;42.812;74.628;2023-02-18T08:35:27;50.67;;;40.95;;
35745;SDS011;21870;42.812;74.628;2023-02-18T08:37:53;71.20;;;51.38;;
35745;SDS011;21870;42.812;74.628;2023-02-18T08:40:19;77.38;;;57.70;;
35745;SDS011;21870;42.812;74.628;2023-02-18T08:42:45;100.40;;;71.18;;
35745;SDS011;21870;42.812;74.628;2023-02-18T08:45:11;116.95;;;79.43;;
35745;SDS011;21870;42.812;74.628;2023-02-18T08:47:37;126.25;;;86.07;;
35745;SDS011;21870;42.812;74.628;2023-02-18T08:50:04;123.13;;;83.65;;
35745;SDS011;21870;42.812;74.628;2023-02-18T08:52:30;131.20;;;90.10;;
35745;SDS011;21870;42.812;74.628;2023-02-18T08:54:56;130.70;;;86.90;;
35745;SDS011;21870;42.812;74.628;2023-02-18T08:57:22;122.65;;;81.97;;
35745;SDS011;21870;42.812;74.628;2023-02-18T08:59:48;124.53;;;81.97;;
35745;SDS011;21870;42.812;74.628;2023-02-18T09:02:14;129.05;;;84.53;;
35745;SDS011;21870;42.812;74.628;2023-02-18T09:04:41;138.65;;;92.85;;
35745;SDS011;21870;42.812;74.628;2023-02-18T09:07:07;133.60;;;89.57;;
35745;SDS011;21870;42.812;74.628;2023-02-18T09:09:33;146.85;;;95.25;;
35745;SDS011;21870;42.812;74.628;2023-02-18T09:11:59;141.45;;;91.35;;
35745;SDS011;21870;42.812;74.628;2023-02-18T09:14:25;134.02;;;86.05;;
35745;SDS011;21870;42.812;74.628;2023-02-18T09:16:51;129.32;;;88.32;;
35745;SDS011;21870;42.812;74.628;2023-02-18T09:19:17;128.68;;;87.90;;
35745;SDS011;21870;42.812;74.628;2023-02-18T09:21:44;121.03;;;81.43;;
35745;SDS011;21870;42.812;74.628;2023-02-18T09:24:10;120.10;;;83.30;;
35745;SDS011;21870;42.812;74.628;2023-02-18T09:26:37;107.63;;;75.10;;
35745;SDS011;21870;42.812;74.628;2023-02-18T09:29:04;110.03;;;76.47;;
35745;SDS011;21870;42.812;74.628;2023-02-18T09:31:30;115.40;;;78.35;;
35745;SDS011;21870;42.812;74.628;2023-02-18T09:34:01;111.20;;;77.18;;
35745;SDS011;21870;42.812;74.628;2023-02-18T09:36:29;113.70;;;79.03;;
35745;SDS011;21870;42.812;74.628;2023-02-18T09:38:55;123.10;;;81.10;;
35745;SDS011;21870;42.812;74.628;2023-02-18T09:49:21;99.40;;;70.63;;
35745;SDS011;21870;42.812;74.628;2023-02-18T09:51:50;96.10;;;64.03;;
35745;SDS011;21870;42.812;74.628;2023-02-18T09:54:17;94.03;;;63.78;;
35745;SDS011;21870;42.812;74.628;2023-02-18T09:56:45;91.78;;;62.38;;
35745;SDS011;21870;42.812;74.628;2023-02-18T09:59:16;91.35;;;63.30;;
35745;SDS011;21870;42.812;74.628;2023-02-18T10:01:46;90.40;;;62.35;;
35745;SDS011;21870;42.812;74.628;2023-02-18T10:04:20;92.35;;;61.60;;
35745;SDS011;21870;42.812;74.628;2023-02-18T10:06:51;99.85;;;64.80;;
35745;SDS011;21870;42.812;74.628;2023-02-18T10:09:28;94.05;;;64.47;;
35745;SDS011;21870;42.812;74.628;2023-02-18T10:12:10;101.97;;;66.95;;
35745;SDS011;21870;42.812;74.628;2023-02-18T10:14:40;102.57;;;67.07;;
35745;SDS011;21870;42.812;74.628;2023-02-18T10:17:11;107.75;;;67.07;;
35745;SDS011;21870;42.812;74.628;2023-02-18T10:19:40;113.97;;;69.00;;
35745;SDS011;21870;42.812;74.628;2023-02-18T10:22:09;113.03;;;67.75;;
35745;SDS011;21870;42.812;74.628;2023-02-18T10:24:39;106.28;;;68.07;;
35745;SDS011;21870;42.812;74.628;2023-02-18T10:27:20;111.90;;;68.72;;
35745;SDS011;21870;42.812;74.628;2023-02-18T10:29:49;109.47;;;68.30;;
35745;SDS011;21870;42.812;74.628;2023-02-18T10:34:53;111.25;;;70.32;;
35745;SDS011;21870;42.812;74.628;2023-02-18T10:51:15;109.00;;;73.18;;
35745;SDS011;21870;42.812;74.628;2023-02-18T10:53:47;106.60;;;72.57;;
35745;SDS011;21870;42.812;74.628;2023-02-18T10:56:36;103.05;;;69.28;;
35745;SDS011;21870;42.812;74.628;2023-02-18T10:59:10;100.53;;;70.00;;
35745;SDS011;21870;42.812;74.628;2023-02-18T11:01:37;105.13;;;69.72;;
35745;SDS011;21870;42.812;74.628;2023-02-18T11:04:27;101.47;;;71.53;;
35745;SDS011;21870;42.812;74.628;2023-02-18T11:07:01;106.63;;;71.85;;
35745;SDS011;21870;42.812;74.628;2023-02-18T11:09:35;101.28;;;71.22;;
35745;SDS011;21870;42.812;74.628;2023-02-18T11:15:24;103.68;;;69.88;;
35745;SDS011;21870;42.812;74.628;2023-02-18T11:17:49;103.93;;;70.78;;
35745;SDS011;21870;42.812;74.628;2023-02-18T11:22:47;97.22;;;67.93;;
35745;SDS011;21870;42.812;74.628;2023-02-18T11:25:18;95.82;;;69.75;;
35745;SDS011;21870;42.812;74.628;2023-02-18T11:28:00;93.65;;;68.10;;
35745;SDS011;21870;42.812;74.628;2023-02-18T11:30:37;88.63;;;67.00;;
35745;SDS011;21870;42.812;74.628;2023-02-18T11:33:06;102.78;;;69.53;;
35745;SDS011;21870;42.812;74.628;2023-02-18T11:35:56;89.25;;;67.22;;
35745;SDS011;21870;42.812;74.628;2023-02-18T11:38:28;93.47;;;69.65;;
35745;SDS011;21870;42.812;74.628;2023-02-18T11:41:19;84.95;;;63.92;;
35745;SDS011;21870;42.812;74.628;2023-02-18T11:44:01;88.47;;;65.20;;
35745;SDS011;21870;42.812;74.628;2023-02-18T11:46:31;87.30;;;67.32;;
35745;SDS011;21870;42.812;74.628;2023-02-18T11:49:10;82.35;;;61.38;;
35745;SDS011;21870;42.812;74.628;2023-02-18T11:51:45;71.53;;;56.58;;
35745;SDS011;21870;42.812;74.628;2023-02-18T11:56:55;72.47;;;58.47;;
35745;SDS011;21870;42.812;74.628;2023-02-18T11:59:24;80.80;;;60.72;;
35745;SDS011;21870;42.812;74.628;2023-02-18T12:01:54;78.80;;;62.90;;
35745;SDS011;21870;42.812;74.628;2023-02-18T12:07:19;91.50;;;69.82;;
35745;SDS011;21870;42.812;74.628;2023-02-18T12:10:03;98.88;;;73.43;;
35745;SDS011;21870;42.812;74.628;2023-02-18T12:12:44;96.05;;;71.00;;
35745;SDS011;21870;42.812;74.628;2023-02-18T12:15:23;98.28;;;72.57;;
35745;SDS011;21870;42.812;74.628;2023-02-18T12:18:09;98.15;;;73.68;;
35745;SDS011;21870;42.812;74.628;2023-02-18T12:23:31;97.18;;;71.72;;
35745;SDS011;21870;42.812;74.628;2023-02-18T12:34:32;105.63;;;72.20;;
35745;SDS011;21870;42.812;74.628;2023-02-18T12:45:52;108.70;;;77.85;;
35745;SDS011;21870;42.812;74.628;2023-02-18T12:48:49;110.45;;;74.32;;
35745;SDS011;21870;42.812;74.628;2023-02-18T12:51:41;111.07;;;75.40;;
35745;SDS011;21870;42.812;74.628;2023-02-18T13:00:08;100.88;;;69.93;;
35745;SDS011;21870;42.812;74.628;2023-02-18T13:13:41;84.93;;;63.55;;
35745;SDS011;21870;42.812;74.628;2023-02-18T13:16:27;85.10;;;62.80;;
35745;SDS011;21870;42.812;74.628;2023-02-18T13:19:00;86.43;;;60.25;;
35745;SDS011;21870;42.812;74.628;2023-02-18T13:21:33;83.80;;;59.17;;
35745;SDS011;21870;42.812;74.628;2023-02-18T13:24:24;77.55;;;56.08;;
35745;SDS011;21870;42.812;74.628;2023-02-18T13:27:00;80.50;;;59.88;;
35745;SDS011;21870;42.812;74.628;2023-02-18T13:29:30;77.90;;;58.80;;
35745;SDS011;21870;42.812;74.628;2023-02-18T13:32:08;77.53;;;56.30;;
35745;SDS011;21870;42.812;74.628;2023-02-18T13:34:49;78.15;;;55.92;;
35745;SDS011;21870;42.812;74.628;2023-02-18T13:40:19;70.28;;;53.30;;
35745;SDS011;21870;42.812;74.628;2023-02-18T13:42:52;68.13;;;50.38;;
35745;SDS011;21870;42.812;74.628;2023-02-18T13:47:53;67.63;;;51.42;;
35745;SDS011;21870;42.812;74.628;2023-02-18T13:53:33;64.10;;;50.10;;
35745;SDS011;21870;42.812;74.628;2023-02-18T13:58:18;63.10;;;48.10;;
35745;SDS011;21870;42.812;74.628;2023-02-18T14:01:00;67.25;;;50.50;;
35745;SDS011;21870;42.812;74.628;2023-02-18T14:03:49;64.75;;;49.72;;
35745;SDS011;21870;42.812;74.628;2023-02-18T14:06:24;67.75;;;51.92;;
35745;SDS011;21870;42.812;74.628;2023-02-18T14:09:33;69.43;;;51.10;;
35745;SDS011;21870;42.812;74.628;2023-02-18T14:11:53;69.30;;;50.55;;
35745;SDS011;21870;42.812;74.628;2023-02-18T14:24:58;71.18;;;54.97;;
35745;SDS011;21870;42.812;74.628;2023-02-18T14:27:40;69.78;;;54.78;;
35745;SDS011;21870;42.812;74.628;2023-02-18T14:32:47;64.95;;;49.75;;
35745;SDS011;21870;42.812;74.628;2023-02-18T14:37:56;67.00;;;51.08;;
35745;SDS011;21870;42.812;74.628;2023-02-18T14:46:35;78.00;;;58.13;;
35745;SDS011;21870;42.812;74.628;2023-02-18T14:52:19;86.93;;;63.63;;
35745;SDS011;21870;42.812;74.628;2023-02-18T14:54:53;83.70;;;62.25;;
35745;SDS011;21870;42.812;74.628;2023-02-18T14:57:21;85.85;;;63.03;;
35745;SDS011;21870;42.812;74.628;2023-02-18T14:59:57;84.35;;;60.05;;
35745;SDS011;21870;42.812;74.628;2023-02-18T15:02:25;83.47;;;63.45;;
35745;SDS011;21870;42.812;74.628;2023-02-18T15:05:06;94.10;;;66.47;;
35745;SDS011;21870;42.812;74.628;2023-02-18T15:07:37;92.60;;;68.38;;
35745;SDS011;21870;42.812;74.628;2023-02-18T15:10:03;95.00;;;68.78;;
35745;SDS011;21870;42.812;74.628;2023-02-18T15:12:37;95.07;;;67.93;;
35745;SDS011;21870;42.812;74.628;2023-02-18T15:15:03;99.55;;;71.78;;
35745;SDS011;21870;42.812;74.628;2023-02-18T15:17:30;91.53;;;67.95;;
35745;SDS011;21870;42.812;74.628;2023-02-18T15:20:02;97.60;;;71.68;;
35745;SDS011;21870;42.812;74.628;2023-02-18T15:22:31;97.57;;;69.82;;
35745;SDS011;21870;42.812;74.628;2023-02-18T15:24:59;96.10;;;70.00;;
35745;SDS011;21870;42.812;74.628;2023-02-18T15:27:28;101.05;;;72.97;;
35745;SDS011;21870;42.812;74.628;2023-02-18T15:30:18;104.50;;;77.03;;
35745;SDS011;21870;42.812;74.628;2023-02-18T15:33:00;102.07;;;75.07;;
35745;SDS011;21870;42.812;74.628;2023-02-18T15:35:27;98.72;;;72.53;;
35745;SDS011;21870;42.812;74.628;2023-02-18T15:37:56;99.28;;;70.70;;
35745;SDS011;21870;42.812;74.628;2023-02-18T15:40:30;116.50;;;86.63;;
35745;SDS011;21870;42.812;74.628;2023-02-18T15:42:59;104.32;;;75.10;;
35745;SDS011;21870;42.812;74.628;2023-02-18T15:45:35;97.43;;;69.60;;
35745;SDS011;21870;42.812;74.628;2023-02-18T15:48:03;96.82;;;70.40;;
35745;SDS011;21870;42.812;74.628;2023-02-18T15:50:36;92.93;;;69.88;;
35745;SDS011;21870;42.812;74.628;2023-02-18T15:53:13;98.88;;;71.30;;
35745;SDS011;21870;42.812;74.628;2023-02-18T15:55:43;98.28;;;72.90;;
35745;SDS011;21870;42.812;74.628;2023-02-18T15:58:34;108.57;;;78.22;;
35745;SDS011;21870;42.812;74.628;2023-02-18T16:01:00;95.97;;;72.95;;
35745;SDS011;21870;42.812;74.628;2023-02-18T16:03:41;99.03;;;75.30;;
35745;SDS011;21870;42.812;74.628;2023-02-18T16:08:55;91.65;;;69.40;;
35745;SDS011;21870;42.812;74.628;2023-02-18T16:11:30;92.68;;;72.38;;
35745;SDS011;21870;42.812;74.628;2023-02-18T16:14:03;98.32;;;71.95;;
35745;SDS011;21870;42.812;74.628;2023-02-18T16:16:34;92.43;;;66.45;;
35745;SDS011;21870;42.812;74.628;2023-02-18T16:19:03;92.85;;;69.15;;
35745;SDS011;21870;42.812;74.628;2023-02-18T16:21:31;95.53;;;68.75;;
35745;SDS011;21870;42.812;74.628;2023-02-18T16:24:03;96.72;;;67.43;;
35745;SDS011;21870;42.812;74.628;2023-02-18T16:26:49;98.03;;;69.90;;
35745;SDS011;21870;42.812;74.628;2023-02-18T16:32:15;95.53;;;67.22;;
35745;SDS011;21870;42.812;74.628;2023-02-18T16:34:41;95.95;;;70.90;;
35745;SDS011;21870;42.812;74.628;2023-02-18T16:37:08;100.32;;;71.03;;
35745;SDS011;21870;42.812;74.628;2023-02-18T16:39:53;101.53;;;72.53;;
35745;SDS011;21870;42.812;74.628;2023-02-18T16:42:19;106.45;;;76.63;;
35745;SDS011;21870;42.812;74.628;2023-02-18T16:44:46;107.22;;;75.95;;
35745;SDS011;21870;42.812;74.628;2023-02-18T16:47:15;106.47;;;78.38;;
35745;SDS011;21870;42.812;74.628;2023-02-18T16:49:44;143.48;;;93.20;;
35745;SDS011;21870;42.812;74.628;2023-02-18T16:52:12;134.77;;;92.75;;
35745;SDS011;21870;42.812;74.628;2023-02-18T16:54:41;115.20;;;83.72;;
35745;SDS011;21870;42.812;74.628;2023-02-18T16:57:08;117.97;;;81.55;;
35745;SDS011;21870;42.812;74.628;2023-02-18T16:59:35;125.18;;;90.25;;
35745;SDS011;21870;42.812;74.628;2023-02-18T17:02:01;119.60;;;86.43;;
35745;SDS011;21870;42.812;74.628;2023-02-18T17:04:28;126.47;;;84.72;;